Time;durP1;ratioP1;P1;durP2;ratioP2;P2;SDS_P1;SDS_P2;PMS_P1;PMS_P2;Temp;Humidity;BMP_temperature;BMP_pressure;BME280_temperature;BME280_humidity;BME280_pressure;Samples;Min_cycle;Max_cycle;Signal;HPM_P1;HPM_P2
2023/01/03 00:07:01;;;;;;;24.30;11.95;;;5.00;99.90;;;;;;21052396;28;20050;-60
2023/01/03 00:17:05;;;;;;;20.23;11.85;;;5.10;99.90;;;;;;21052852;28;20032;-52
2023/01/03 00:27:07;;;;;;;352.52;21.42;;;5.30;99.90;;;;;;21064842;28;20430;-59
2023/01/03 00:37:09;;;;;;;24.75;11.90;;;5.20;99.90;;;;;;21069417;28;20089;-52
2023/01/03 00:47:10;;;;;;;47.35;13.27;;;5.20;99.90;;;;;;21062377;28;20040;-60
2023/01/03 00:57:12;;;;;;;99.57;12.23;;;5.30;99.90;;;;;;21047560;28;20040;-60
2023/01/03 01:07:14;;;;;;;29.75;9.13;;;5.40;99.90;;;;;;21063092;28;20066;-53
2023/01/03 01:17:15;;;;;;;570.95;24.77;;;5.50;99.90;;;;;;21050211;28;20035;-57
2023/01/03 01:27:17;;;;;;;281.38;17.02;;;5.40;99.90;;;;;;21062501;28;20040;-60
2023/01/03 01:37:19;;;;;;;291.20;17.85;;;5.40;99.90;;;;;;21064710;28;20446;-60
2023/01/03 01:47:26;;;;;;;50.35;9.73;;;5.40;99.90;;;;;;21047530;28;20044;-58
2023/01/03 01:57:29;;;;;;;153.73;10.30;;;5.60;99.90;;;;;;21062082;28;20050;-55
2023/01/03 02:07:31;;;;;;;269.00;12.23;;;5.60;99.90;;;;;;21060072;28;20035;-60
2023/01/03 02:17:56;;;;;;;22.88;6.43;;;5.70;99.90;;;;;;21047400;28;20028;-53
2023/01/03 02:28:27;;;;;;;393.40;17.63;;;5.70;99.90;;;;;;21057058;28;20093;-52
2023/01/03 02:38:53;;;;;;;682.67;24.75;;;5.80;99.90;;;;;;21066528;28;20097;-60
2023/01/03 02:49:19;;;;;;;58.17;5.90;;;5.60;99.90;;;;;;21073606;28;20048;-60
2023/01/03 02:59:32;;;;;;;102.20;10.60;;;5.60;99.90;;;;;;21074778;28;20032;-60
2023/01/03 03:13:11;;;;;;;104.45;8.93;;;5.70;99.90;;;;;;21069673;28;20036;-54
2023/01/03 03:30:18;;;;;;;;;;;5.70;99.90;;;;;;21074830;28;20040;-59
2023/01/03 03:51:01;;;;;;;82.53;7.88;;;5.80;99.90;;;;;;21066717;28;20641;-49
2023/01/03 04:01:04;;;;;;;22.73;5.13;;;5.90;99.90;;;;;;21074412;28;20073;-52
2023/01/03 04:11:06;;;;;;;377.45;15.85;;;5.80;99.90;;;;;;21065538;28;20032;-54
2023/01/03 04:21:07;;;;;;;231.30;10.15;;;5.80;99.90;;;;;;21070691;28;20078;-52
2023/01/03 04:31:09;;;;;;;49.22;4.10;;;5.80;99.90;;;;;;21053437;28;20387;-60
2023/01/03 04:41:11;;;;;;;399.13;15.23;;;5.80;99.90;;;;;;21067234;28;20457;-49
2023/01/03 04:51:12;;;;;;;9.00;3.47;;;5.80;99.90;;;;;;21068390;28;20040;-60
2023/01/03 05:01:14;;;;;;;10.07;2.97;;;5.80;99.90;;;;;;21069253;28;20032;-60
2023/01/03 05:11:16;;;;;;;35.15;4.82;;;5.80;99.90;;;;;;21062150;28;20058;-59
2023/01/03 05:31:40;;;;;;;5.43;3.75;;;5.70;99.90;;;;;;21067083;28;20101;-60
2023/01/03 05:42:00;;;;;;;21.73;4.47;;;5.70;99.90;;;;;;21060244;28;20032;-51
2023/01/03 05:52:01;;;;;;;116.57;5.60;;;5.80;99.90;;;;;;21056160;28;20470;-60
2023/01/03 06:02:03;;;;;;;984.97;30.95;;;5.70;99.90;;;;;;21066147;28;20081;-51
2023/01/03 06:12:04;;;;;;;68.55;5.13;;;5.70;99.90;;;;;;21067664;28;20024;-53
2023/01/03 06:22:06;;;;;;;3.08;2.45;;;5.50;99.90;;;;;;21078467;28;20110;-54
2023/01/03 06:32:08;;;;;;;32.63;5.32;;;5.50;99.90;;;;;;21062726;28;20043;-54
2023/01/03 07:02:50;;;;;;;297.52;14.43;;;5.60;99.90;;;;;;21079340;28;20036;-49
2023/01/03 07:23:12;;;;;;;419.70;17.93;;;5.40;99.90;;;;;;21074353;28;20036;-50
2023/01/03 07:33:15;;;;;;;184.63;12.20;;;5.40;99.90;;;;;;21076564;28;20484;-53
2023/01/03 07:43:35;;;;;;;18.48;7.25;;;5.40;99.90;;;;;;21068111;28;20434;-54
2023/01/03 07:53:38;;;;;;;28.27;7.13;;;5.60;99.90;;;;;;21072069;28;20404;-60
2023/01/03 08:03:40;;;;;;;78.18;9.25;;;5.70;99.90;;;;;;21074308;28;20078;-60
2023/01/03 08:13:43;;;;;;;31.38;6.38;;;5.70;99.90;;;;;;21048774;28;20078;-60
2023/01/03 08:23:45;;;;;;;60.40;7.35;;;5.70;99.90;;;;;;21033478;28;20534;-52
2023/01/03 08:33:56;;;;;;;20.30;7.50;;;5.80;99.90;;;;;;21037607;28;20037;-55
2023/01/03 08:44:01;;;;;;;9.15;5.25;;;6.10;99.90;;;;;;21040761;28;20028;-60
2023/01/03 08:54:02;;;;;;;12.27;6.75;;;6.70;99.90;;;;;;21066165;28;20529;-60
2023/01/03 09:04:04;;;;;;;34.42;7.85;;;7.20;99.90;;;;;;21051302;28;20028;-50
2023/01/03 09:14:06;;;;;;;16.00;6.47;;;7.30;99.90;;;;;;21045388;28;20113;-60
2023/01/03 09:24:08;;;;;;;309.85;16.17;;;7.30;99.90;;;;;;21041095;28;20429;-60
2023/01/03 09:34:10;;;;;;;125.40;13.35;;;7.40;99.90;;;;;;21048301;28;20369;-60
2023/01/03 09:44:13;;;;;;;62.15;9.93;;;7.10;99.90;;;;;;21052658;28;20036;-61
2023/01/03 10:05:01;;;;;;;13.52;9.27;;;6.60;99.90;;;;;;21058178;28;20033;-53
2023/01/03 10:15:34;;;;;;;12.48;7.97;;;6.80;99.90;;;;;;21056259;28;20550;-60
2023/01/03 10:25:40;;;;;;;11.00;6.20;;;7.10;99.90;;;;;;21030481;28;20047;-60
2023/01/03 10:35:41;;;;;;;37.72;8.55;;;7.50;99.90;;;;;;21062877;28;20033;-60
2023/01/03 10:46:03;;;;;;;22.52;8.70;;;7.70;99.90;;;;;;21045617;28;20547;-61
2023/01/03 10:56:06;;;;;;;14.90;7.25;;;7.60;99.90;;;;;;21044453;28;20036;-60
2023/01/03 11:06:12;;;;;;;12.18;7.60;;;7.40;99.90;;;;;;21056869;28;20062;-53
2023/01/03 11:16:18;;;;;;;12.95;8.48;;;7.10;99.90;;;;;;21071563;28;20024;-52
2023/01/03 11:26:45;;;;;;;14.20;8.10;;;7.00;99.90;;;;;;21071096;28;20036;-54
2023/01/03 11:36:56;;;;;;;12.45;7.18;;;7.20;99.90;;;;;;21066832;28;20404;-55
2023/01/03 11:47:21;;;;;;;10.55;6.85;;;7.60;99.90;;;;;;21049310;28;20044;-53
2023/01/03 11:57:31;;;;;;;11.48;7.10;;;7.90;99.90;;;;;;21050505;28;20559;-61
2023/01/03 12:07:57;;;;;;;12.07;7.22;;;7.80;99.90;;;;;;21047218;28;20033;-55
2023/01/03 12:18:38;;;;;;;10.27;6.65;;;7.80;99.90;;;;;;21064771;28;20481;-55
2023/01/03 12:28:46;;;;;;;9.23;6.38;;;8.00;99.90;;;;;;21065204;28;20024;-61
2023/01/03 12:39:34;;;;;;;9.75;5.82;;;8.50;99.90;;;;;;21067272;28;20043;-60
2023/01/03 12:49:57;;;;;;;6.93;5.45;;;9.00;99.90;;;;;;20641873;28;20046;-60
2023/01/03 13:00:03;;;;;;;8.80;6.40;;;9.00;99.90;;;;;;20630639;28;20105;-61
2023/01/03 13:10:14;;;;;;;11.02;7.82;;;8.90;99.90;;;;;;20640124;28;20074;-54
2023/01/03 13:20:33;;;;;;;10.77;6.22;;;8.40;99.90;;;;;;20754625;28;20119;-56
2023/01/03 13:30:37;;;;;;;11.98;7.43;;;7.90;99.90;;;;;;21048034;28;20040;-61
2023/01/03 13:40:45;;;;;;;12.27;7.93;;;7.60;99.90;;;;;;21060711;28;20031;-56
2023/01/03 13:51:15;;;;;;;12.38;8.27;;;7.20;99.90;;;;;;21045371;28;20565;-54
2023/01/03 14:01:28;;;;;;;13.02;7.03;;;7.10;99.90;;;;;;21047612;28;20259;-60
2023/01/03 14:11:43;;;;;;;16.33;9.30;;;7.20;99.90;;;;;;21059705;28;20036;-56
2023/01/03 14:21:59;;;;;;;16.23;10.23;;;7.10;99.90;;;;;;21059787;28;20035;-60
2023/01/03 14:32:01;;;;;;;16.80;9.63;;;7.00;99.90;;;;;;21069018;28;20043;-53
2023/01/03 14:42:05;;;;;;;16.83;10.20;;;6.90;99.90;;;;;;21057324;28;20032;-54
2023/01/03 14:52:19;;;;;;;18.65;12.27;;;6.80;99.90;;;;;;21058281;28;20032;-54
2023/01/03 15:02:22;;;;;;;16.77;9.98;;;6.70;99.90;;;;;;21074406;28;20469;-51
2023/01/03 15:12:24;;;;;;;11.82;8.27;;;6.60;99.90;;;;;;21051647;28;20546;-60
2023/01/03 15:22:39;;;;;;;5.43;3.50;;;6.40;99.90;;;;;;21055528;28;20035;-60
2023/01/03 15:32:47;;;;;;;11.23;5.63;;;6.20;99.90;;;;;;21077241;28;20421;-60
2023/01/03 15:53:18;;;;;;;;;;;5.50;99.90;;;;;;21053554;28;20039;-50
2023/01/03 16:03:22;;;;;;;6.28;3.28;;;5.20;99.90;;;;;;21055481;28;19915;-54
2023/01/03 16:13:27;;;;;;;3.47;2.00;;;4.90;99.90;;;;;;21061804;28;20031;-60
2023/01/03 16:23:30;;;;;;;4.05;1.70;;;4.70;99.90;;;;;;21067370;28;20043;-50
2023/01/03 16:33:34;;;;;;;3.85;1.92;;;4.70;99.90;;;;;;21070996;28;20101;-51
2023/01/03 16:43:36;;;;;;;2.28;1.10;;;4.70;99.90;;;;;;21061252;28;20032;-60
2023/01/03 16:53:39;;;;;;;3.67;1.60;;;4.50;99.90;;;;;;21064269;28;20048;-48
2023/01/03 17:03:41;;;;;;;2.65;1.40;;;4.60;99.90;;;;;;21068475;28;20429;-46
2023/01/03 17:13:46;;;;;;;5.95;1.98;;;4.80;99.90;;;;;;21058336;28;20078;-48
2023/01/03 17:23:49;;;;;;;2.17;1.38;;;5.00;99.90;;;;;;21063264;28;20557;-52
2023/01/03 17:33:52;;;;;;;2.63;1.20;;;5.00;99.90;;;;;;21043900;28;20476;-59
2023/01/03 17:43:54;;;;;;;3.30;2.03;;;5.00;99.90;;;;;;21062966;28;20028;-47
2023/01/03 17:53:56;;;;;;;4.20;1.27;;;5.00;99.90;;;;;;21060818;28;20044;-58
2023/01/03 18:03:58;;;;;;;2.13;1.23;;;5.00;99.90;;;;;;21067126;28;20040;-58
2023/01/03 18:14:00;;;;;;;1.60;1.00;;;5.00;99.90;;;;;;21057598;28;20032;-58
2023/01/03 18:24:20;;;;;;;4.32;1.60;;;5.00;99.90;;;;;;21077133;28;20386;-49
2023/01/03 18:34:22;;;;;;;2.87;1.60;;;5.00;99.90;;;;;;21077106;28;20036;-52
2023/01/03 18:44:25;;;;;;;2.45;1.58;;;5.10;99.90;;;;;;21077089;28;20043;-59
2023/01/03 18:54:27;;;;;;;5.53;1.50;;;5.00;99.90;;;;;;21067152;28;20097;-47
2023/01/03 19:04:29;;;;;;;4.57;2.30;;;5.10;99.90;;;;;;21077774;28;20046;-59
2023/01/03 19:14:31;;;;;;;4.53;2.30;;;5.10;99.90;;;;;;21065841;28;20028;-59
2023/01/03 19:24:36;;;;;;;8.25;1.73;;;5.10;99.90;;;;;;21067185;28;20111;-59
2023/01/03 19:34:38;;;;;;;2.38;1.10;;;5.00;99.90;;;;;;21073769;28;20052;-52
2023/01/03 19:44:40;;;;;;;1.17;0.80;;;5.00;99.90;;;;;;21054123;28;20059;-49
2023/01/03 19:54:42;;;;;;;2.45;0.95;;;5.00;99.90;;;;;;21068496;28;20462;-49
2023/01/03 20:04:44;;;;;;;3.42;0.77;;;5.00;99.90;;;;;;21070194;28;20028;-50
2023/01/03 20:14:49;;;;;;;3.80;2.00;;;4.90;99.90;;;;;;21067149;28;20050;-51
2023/01/03 20:24:51;;;;;;;1.70;1.05;;;4.90;99.90;;;;;;21051238;28;20089;-48
2023/01/03 20:34:53;;;;;;;0.93;0.52;;;5.00;99.90;;;;;;21030958;28;20028;-59
2023/01/03 20:44:55;;;;;;;2.13;1.20;;;5.00;99.90;;;;;;21052112;28;20549;-55
2023/01/03 20:54:57;;;;;;;1.92;0.80;;;4.90;99.90;;;;;;21062907;28;20044;-50
2023/01/03 21:04:59;;;;;;;1.08;0.43;;;4.70;99.90;;;;;;21053521;28;20032;-51
2023/01/03 21:15:01;;;;;;;0.80;0.40;;;4.30;99.90;;;;;;21060440;28;20039;-50
2023/01/03 21:25:06;;;;;;;2.45;0.40;;;3.90;99.90;;;;;;21067257;28;20039;-48
2023/01/03 21:35:13;;;;;;;0.73;0.30;;;3.60;99.90;;;;;;21066607;28;20031;-59
2023/01/03 21:45:15;;;;;;;1.05;0.30;;;3.30;99.90;;;;;;21062042;28;20362;-53
2023/01/03 21:55:17;;;;;;;0.70;0.30;;;3.00;99.90;;;;;;21046787;28;20052;-55
2023/01/03 22:05:20;;;;;;;0.32;0.20;;;3.00;99.90;;;;;;21061902;28;20056;-50
2023/01/03 22:15:23;;;;;;;0.15;0.10;;;3.00;99.90;;;;;;21060162;28;20028;-46
2023/01/03 22:25:25;;;;;;;1.05;0.28;;;2.80;99.90;;;;;;21060075;28;20404;-47
2023/01/03 22:35:27;;;;;;;0.50;0.20;;;2.70;99.90;;;;;;21064144;28;20085;-58
2023/01/03 22:45:28;;;;;;;1.63;0.30;;;2.80;99.90;;;;;;21019755;28;20040;-59
2023/01/03 22:55:30;;;;;;;0.65;0.13;;;2.70;99.90;;;;;;21070566;28;20078;-59
2023/01/03 23:05:34;;;;;;;0.52;0.10;;;2.50;99.90;;;;;;21077889;28;20035;-56
2023/01/03 23:15:35;;;;;;;0.43;0.10;;;2.40;99.90;;;;;;21073945;28;20093;-50
2023/01/03 23:25:37;;;;;;;1.38;0.25;;;2.40;99.90;;;;;;21072292;28;20077;-51
2023/01/03 23:35:39;;;;;;;0.60;0.30;;;2.30;99.90;;;;;;21071876;28;20040;-50
2023/01/03 23:45:40;;;;;;;3.00;0.40;;;2.30;99.90;;;;;;21071494;28;20534;-55
2023/01/03 23:55:43;;;;;;;0.82;0.30;;;2.30;99.90;;;;;;21069886;28;20068;-47
